Time;durP1;ratioP1;P1;durP2;ratioP2;P2;SDS_P1;SDS_P2;PMS_P1;PMS_P2;Temp;Humidity;BMP_temperature;BMP_pressure;BME280_temperature;BME280_humidity;BME280_pressure;Samples;Min_cycle;Max_cycle;Signal;HPM_P1;HPM_P2
2021/08/08 00:00:59;;;;;;;2.22;1.50;;;21.00;72.80;;;;;;5092998;28;20020;-71
2021/08/08 00:03:25;;;;;;;6.25;1.40;;;21.00;72.80;;;;;;5087452;28;20024;-71
2021/08/08 00:05:51;;;;;;;2.92;1.17;;;21.00;72.90;;;;;;5091801;28;20032;-72
2021/08/08 00:08:18;;;;;;;3.75;1.50;;;21.00;72.90;;;;;;5093547;28;20028;-71
2021/08/08 00:10:44;;;;;;;2.80;1.30;;;20.90;73.00;;;;;;5091051;28;20425;-72
2021/08/08 00:13:09;;;;;;;2.95;1.60;;;20.90;73.30;;;;;;5090748;28;20028;-71
2021/08/08 00:15:37;;;;;;;2.72;1.52;;;20.90;73.40;;;;;;5089164;28;20050;-72
2021/08/08 00:18:05;;;;;;;9.85;1.98;;;20.90;73.50;;;;;;5091718;28;20032;-71
2021/08/08 00:20:30;;;;;;;4.00;1.35;;;20.90;73.50;;;;;;5092876;28;20064;-72
2021/08/08 00:22:56;;;;;;;3.90;1.40;;;20.90;73.60;;;;;;5091801;28;20073;-72
2021/08/08 00:25:23;;;;;;;7.07;1.50;;;20.90;73.30;;;;;;5091124;28;20040;-71
2021/08/08 00:27:49;;;;;;;5.00;1.40;;;20.90;73.20;;;;;;5090516;28;20085;-72
2021/08/08 00:30:15;;;;;;;1.50;1.20;;;20.80;73.20;;;;;;5089476;28;20486;-72
2021/08/08 00:32:41;;;;;;;4.72;1.40;;;20.80;73.30;;;;;;5091184;28;20371;-72
2021/08/08 00:35:11;;;;;;;1.63;1.30;;;20.80;73.60;;;;;;5090646;28;20136;-71
2021/08/08 00:37:43;;;;;;;2.67;1.10;;;20.80;73.60;;;;;;5089562;28;20398;-71
2021/08/08 00:40:13;;;;;;;3.10;1.20;;;20.70;73.30;;;;;;5090319;28;20020;-72
2021/08/08 00:42:42;;;;;;;3.13;1.60;;;20.70;73.30;;;;;;5090106;28;20750;-71
2021/08/08 00:45:08;;;;;;;2.92;1.80;;;20.70;73.40;;;;;;5089801;28;20119;-71
2021/08/08 00:47:37;;;;;;;2.22;1.40;;;20.60;73.40;;;;;;5091137;28;20074;-71
2021/08/08 00:50:04;;;;;;;2.08;1.40;;;20.70;73.60;;;;;;5091443;28;20039;-71
2021/08/08 00:52:33;;;;;;;4.70;1.50;;;20.60;73.60;;;;;;5089400;28;20024;-72
2021/08/08 00:54:58;;;;;;;2.67;1.48;;;20.70;73.80;;;;;;5089822;28;20039;-71
2021/08/08 00:57:24;;;;;;;9.23;1.70;;;20.60;73.80;;;;;;5086879;28;20020;-72
2021/08/08 00:59:51;;;;;;;3.95;1.75;;;20.50;74.00;;;;;;5088534;28;20028;-72
2021/08/08 01:02:20;;;;;;;4.20;1.85;;;20.50;74.10;;;;;;5090447;28;20390;-71
2021/08/08 01:05:06;;;;;;;5.13;1.48;;;20.60;74.40;;;;;;5089057;28;20379;-71
2021/08/08 01:07:56;;;;;;;2.20;1.70;;;20.60;74.30;;;;;;5075264;28;20031;-71
2021/08/08 01:10:22;;;;;;;2.78;1.33;;;20.50;74.40;;;;;;5087967;28;20043;-72
2021/08/08 01:12:51;;;;;;;2.95;1.50;;;20.50;74.30;;;;;;5089827;28;20076;-71
2021/08/08 01:15:19;;;;;;;1.58;1.45;;;20.50;74.40;;;;;;5080300;28;20040;-71
2021/08/08 01:17:48;;;;;;;4.68;1.67;;;20.40;74.30;;;;;;5088665;28;20024;-71
2021/08/08 01:20:15;;;;;;;4.78;1.80;;;20.40;74.40;;;;;;5089732;28;20020;-71
2021/08/08 01:22:52;;;;;;;3.70;1.92;;;20.40;74.60;;;;;;5088092;28;20032;-71
2021/08/08 01:25:18;;;;;;;3.42;1.63;;;20.40;74.60;;;;;;5089346;28;20062;-71
2021/08/08 01:27:43;;;;;;;5.47;1.90;;;20.40;74.50;;;;;;5090260;28;20028;-71
2021/08/08 01:30:10;;;;;;;2.75;1.60;;;20.30;74.40;;;;;;5088646;28;20033;-72
2021/08/08 01:32:37;;;;;;;2.53;1.70;;;20.30;74.50;;;;;;5090336;28;20372;-71
2021/08/08 01:35:06;;;;;;;3.90;1.80;;;20.30;74.70;;;;;;5088230;28;20046;-71
2021/08/08 01:37:33;;;;;;;3.20;1.65;;;20.30;74.90;;;;;;5090304;28;20490;-71
2021/08/08 01:40:20;;;;;;;3.53;1.65;;;20.30;74.70;;;;;;5090251;28;20036;-71
2021/08/08 01:42:49;;;;;;;3.28;1.60;;;20.20;74.80;;;;;;5079023;28;20055;-71
2021/08/08 01:45:17;;;;;;;3.60;1.65;;;20.20;74.60;;;;;;5089024;28;20036;-71
2021/08/08 01:47:54;;;;;;;3.67;1.50;;;20.20;74.90;;;;;;5088877;28;20032;-71
2021/08/08 01:50:22;;;;;;;1.95;1.60;;;20.20;75.10;;;;;;5084899;28;20039;-71
2021/08/08 01:52:49;;;;;;;3.75;1.70;;;20.20;75.10;;;;;;5092974;28;20085;-71
2021/08/08 01:55:20;;;;;;;2.88;1.80;;;20.10;75.20;;;;;;5092855;28;20035;-72
2021/08/08 01:57:54;;;;;;;5.38;1.50;;;20.10;75.20;;;;;;5092913;28;20020;-71
2021/08/08 02:00:25;;;;;;;1.67;1.10;;;20.10;74.70;;;;;;5083924;28;20063;-72
2021/08/08 02:02:58;;;;;;;4.55;1.75;;;20.10;74.30;;;;;;5083907;28;20035;-71
2021/08/08 02:05:32;;;;;;;5.18;1.20;;;20.20;74.60;;;;;;5083522;28;20502;-71
2021/08/08 02:08:08;;;;;;;2.40;1.50;;;20.10;74.10;;;;;;5093649;28;20115;-71
2021/08/08 02:10:44;;;;;;;4.95;1.75;;;20.10;74.70;;;;;;5091391;28;20032;-71
2021/08/08 02:13:10;;;;;;;2.83;1.70;;;20.10;74.70;;;;;;5087948;28;20021;-71
2021/08/08 02:15:36;;;;;;;2.78;1.70;;;20.20;74.80;;;;;;5090641;28;20051;-72
2021/08/08 02:18:05;;;;;;;4.60;1.98;;;20.10;75.00;;;;;;5088422;28;20016;-71
2021/08/08 02:20:34;;;;;;;4.38;1.80;;;20.10;75.20;;;;;;5092232;28;20024;-71
2021/08/08 02:23:05;;;;;;;7.45;2.08;;;20.10;75.30;;;;;;5092412;28;20795;-71
2021/08/08 02:25:34;;;;;;;5.03;2.00;;;20.10;75.40;;;;;;5091164;28;20039;-71
2021/08/08 02:28:09;;;;;;;3.45;1.50;;;20.10;75.60;;;;;;5093593;28;20024;-71
2021/08/08 02:30:39;;;;;;;3.83;1.92;;;20.20;75.70;;;;;;5092218;28;20070;-72
2021/08/08 02:33:06;;;;;;;4.13;1.80;;;20.10;75.60;;;;;;5093388;28;20015;-72
2021/08/08 02:35:35;;;;;;;5.75;1.50;;;20.20;75.70;;;;;;5088855;28;20024;-71
2021/08/08 02:38:02;;;;;;;3.95;1.80;;;20.10;75.50;;;;;;5091291;28;20024;-72
2021/08/08 02:40:28;;;;;;;6.72;2.33;;;20.10;75.60;;;;;;5093313;28;20032;-72
2021/08/08 02:42:55;;;;;;;5.03;1.77;;;20.10;75.80;;;;;;5092098;28;20136;-71
2021/08/08 02:45:21;;;;;;;2.95;1.60;;;20.10;76.20;;;;;;5092105;28;20119;-71
2021/08/08 02:47:50;;;;;;;5.20;1.73;;;20.10;76.20;;;;;;5089882;28;20028;-72
2021/08/08 02:50:17;;;;;;;3.90;1.90;;;20.10;75.90;;;;;;5090176;28;20348;-72
2021/08/08 02:52:44;;;;;;;3.40;1.98;;;20.20;75.80;;;;;;5090935;28;20028;-71
2021/08/08 02:55:11;;;;;;;4.95;2.00;;;20.10;76.00;;;;;;5088411;28;20439;-72
2021/08/08 02:57:42;;;;;;;2.95;1.73;;;20.20;75.90;;;;;;5090072;28;20052;-72
2021/08/08 03:00:09;;;;;;;4.28;1.88;;;20.10;76.00;;;;;;5091584;28;20016;-72
2021/08/08 03:02:35;;;;;;;3.03;1.83;;;20.10;76.00;;;;;;5091946;28;20471;-72
2021/08/08 03:05:04;;;;;;;2.88;1.90;;;20.10;75.80;;;;;;5091968;28;20044;-71
2021/08/08 03:07:29;;;;;;;3.85;1.73;;;20.10;75.80;;;;;;5090876;28;20013;-71
2021/08/08 03:09:56;;;;;;;4.68;2.13;;;20.10;75.80;;;;;;5092723;28;20027;-71
2021/08/08 03:12:21;;;;;;;5.22;2.00;;;20.10;75.90;;;;;;5092584;28;20016;-71
2021/08/08 03:14:47;;;;;;;6.20;2.20;;;20.10;75.70;;;;;;5092602;28;20075;-71
2021/08/08 03:17:13;;;;;;;3.40;1.90;;;20.00;75.90;;;;;;5091291;28;20065;-71
2021/08/08 03:19:38;;;;;;;6.35;2.00;;;20.10;75.90;;;;;;5092570;28;20032;-71
2021/08/08 03:22:04;;;;;;;2.75;1.98;;;20.00;76.00;;;;;;5092357;28;20032;-71
2021/08/08 03:24:30;;;;;;;14.40;2.42;;;20.00;76.10;;;;;;5092134;28;20032;-71
2021/08/08 03:26:56;;;;;;;6.95;1.88;;;20.00;75.90;;;;;;5090190;28;20046;-72
2021/08/08 03:29:22;;;;;;;3.90;2.10;;;20.00;75.90;;;;;;5091098;28;20028;-71
2021/08/08 03:31:49;;;;;;;4.80;1.90;;;19.90;75.80;;;;;;5091646;28;20028;-72
2021/08/08 03:34:15;;;;;;;3.45;2.30;;;20.00;76.10;;;;;;5090575;28;20020;-72
2021/08/08 03:36:41;;;;;;;8.32;2.22;;;19.90;76.20;;;;;;5091970;28;20060;-72
2021/08/08 03:39:07;;;;;;;5.38;2.90;;;19.90;76.60;;;;;;5091038;28;20493;-72
2021/08/08 03:41:34;;;;;;;3.72;2.20;;;19.90;76.10;;;;;;5091222;28;20398;-72
2021/08/08 03:43:59;;;;;;;4.05;2.10;;;19.90;76.30;;;;;;5092706;28;20031;-71
2021/08/08 03:46:25;;;;;;;7.43;2.40;;;19.80;75.90;;;;;;5089266;28;20032;-72
2021/08/08 03:48:52;;;;;;;3.38;2.20;;;19.90;76.30;;;;;;5091315;28;20024;-71
2021/08/08 03:51:18;;;;;;;3.25;1.83;;;19.80;76.60;;;;;;5091308;28;20060;-71
2021/08/08 03:53:44;;;;;;;3.38;1.98;;;19.90;76.70;;;;;;5090469;28;20111;-71
2021/08/08 03:56:10;;;;;;;2.75;2.13;;;19.80;76.40;;;;;;5090822;28;20459;-72
2021/08/08 03:58:35;;;;;;;6.35;2.00;;;19.80;76.40;;;;;;5091165;28;20061;-71
2021/08/08 04:01:03;;;;;;;3.75;2.25;;;19.80;75.90;;;;;;5091902;28;20028;-71
2021/08/08 04:03:32;;;;;;;5.05;2.25;;;19.80;75.90;;;;;;5088857;28;20058;-71
2021/08/08 04:05:57;;;;;;;5.15;2.30;;;19.80;76.00;;;;;;5091670;28;20032;-71
2021/08/08 04:08:23;;;;;;;6.40;2.50;;;19.70;75.80;;;;;;5084896;28;20024;-71
2021/08/08 04:10:51;;;;;;;4.95;2.60;;;19.70;75.80;;;;;;5090058;28;20027;-71
2021/08/08 04:13:17;;;;;;;7.63;2.85;;;19.70;76.10;;;;;;5092567;28;20024;-71
2021/08/08 04:15:42;;;;;;;6.03;2.40;;;19.70;76.10;;;;;;5088998;28;20538;-72
2021/08/08 04:18:08;;;;;;;6.55;3.00;;;19.70;76.10;;;;;;5090978;28;20026;-72
2021/08/08 04:20:34;;;;;;;4.97;3.00;;;19.60;76.20;;;;;;5092480;28;20032;-72
2021/08/08 04:23:02;;;;;;;7.90;2.47;;;19.60;76.40;;;;;;5089911;28;20024;-72
2021/08/08 04:25:28;;;;;;;3.33;2.13;;;19.60;76.30;;;;;;5089780;28;20040;-72
2021/08/08 04:27:54;;;;;;;3.95;2.40;;;19.60;76.20;;;;;;5092659;28;20058;-72
2021/08/08 04:30:20;;;;;;;8.75;3.00;;;19.60;76.20;;;;;;5089499;28;20028;-72
2021/08/08 04:32:45;;;;;;;6.40;2.72;;;19.60;76.20;;;;;;5091553;28;20032;-72
2021/08/08 04:35:12;;;;;;;5.90;2.85;;;19.60;76.10;;;;;;5090505;28;20030;-72
2021/08/08 04:37:39;;;;;;;4.25;2.88;;;19.50;76.30;;;;;;5089185;28;20503;-72
2021/08/08 04:40:06;;;;;;;4.13;2.70;;;19.50;76.20;;;;;;5090335;28;20060;-72
2021/08/08 04:42:36;;;;;;;4.22;2.90;;;19.50;76.20;;;;;;5089764;28;20433;-72
2021/08/08 04:45:03;;;;;;;5.00;3.10;;;19.50;76.60;;;;;;5089638;28;20036;-72
2021/08/08 04:47:28;;;;;;;4.85;3.22;;;19.50;76.30;;;;;;5091260;28;20494;-72
2021/08/08 04:49:54;;;;;;;5.00;2.65;;;19.40;76.50;;;;;;5091393;28;20032;-72
2021/08/08 04:52:20;;;;;;;3.80;2.80;;;19.40;76.40;;;;;;5092040;28;20371;-72
2021/08/08 04:54:45;;;;;;;6.20;3.00;;;19.40;76.60;;;;;;5090502;28;20028;-72
2021/08/08 04:57:11;;;;;;;4.78;3.60;;;19.40;76.40;;;;;;5090581;28;20036;-72
2021/08/08 04:59:37;;;;;;;8.85;3.17;;;19.40;77.00;;;;;;5089909;28;20119;-72
2021/08/08 05:02:03;;;;;;;5.00;3.00;;;19.40;76.70;;;;;;5088762;28;20368;-74
2021/08/08 05:04:30;;;;;;;7.18;2.60;;;19.40;76.50;;;;;;5089555;28;20016;-73
2021/08/08 05:06:56;;;;;;;7.40;3.22;;;19.40;76.80;;;;;;5089496;28;20031;-73
2021/08/08 05:09:24;;;;;;;6.35;3.42;;;19.40;77.00;;;;;;5091873;28;20028;-72
2021/08/08 05:11:50;;;;;;;5.35;3.17;;;19.40;77.00;;;;;;5089223;28;20043;-76
2021/08/08 05:14:17;;;;;;;5.13;2.58;;;19.30;76.70;;;;;;5089677;28;20040;-76
2021/08/08 05:16:43;;;;;;;7.38;3.50;;;19.30;76.50;;;;;;5087759;28;20054;-76
2021/08/08 05:19:08;;;;;;;4.60;2.17;;;19.30;77.70;;;;;;5089748;28;20016;-71
2021/08/08 05:21:34;;;;;;;2.28;1.30;;;19.30;77.40;;;;;;5089464;28;20487;-71
2021/08/08 05:24:00;;;;;;;2.17;1.50;;;19.20;77.40;;;;;;5092261;28;20107;-71
2021/08/08 05:26:26;;;;;;;4.32;2.13;;;19.20;78.00;;;;;;5093165;28;20067;-72
2021/08/08 05:28:51;;;;;;;4.45;2.38;;;19.20;78.30;;;;;;5092569;28;20027;-72
2021/08/08 05:31:17;;;;;;;1.05;0.98;;;19.20;79.10;;;;;;5095244;28;20024;-71
2021/08/08 05:33:43;;;;;;;2.08;1.50;;;19.10;78.90;;;;;;5094621;28;20425;-72
2021/08/08 05:36:08;;;;;;;3.75;2.47;;;19.20;79.20;;;;;;5093888;28;20482;-71
2021/08/08 05:38:35;;;;;;;2.97;2.08;;;19.20;79.40;;;;;;5092991;28;20028;-72
2021/08/08 05:41:00;;;;;;;3.78;1.13;;;19.10;79.40;;;;;;5090445;28;20040;-72
2021/08/08 05:43:27;;;;;;;5.80;3.22;;;19.20;80.10;;;;;;5090135;28;20399;-72
2021/08/08 05:45:52;;;;;;;13.30;2.10;;;19.20;80.70;;;;;;5095025;28;20035;-72
2021/08/08 05:48:18;;;;;;;3.50;1.38;;;19.10;80.50;;;;;;5093640;28;20028;-72
2021/08/08 05:50:45;;;;;;;2.10;0.77;;;19.20;80.80;;;;;;5092663;28;20032;-72
2021/08/08 05:53:10;;;;;;;1.45;1.35;;;19.20;81.40;;;;;;5094432;28;20055;-72
2021/08/08 05:55:41;;;;;;;3.28;2.08;;;19.20;81.50;;;;;;5085713;28;20054;-72
2021/08/08 05:58:08;;;;;;;1.38;1.25;;;19.20;81.80;;;;;;5093771;28;20023;-72
2021/08/08 06:00:34;;;;;;;2.85;1.33;;;19.20;82.20;;;;;;5093533;28;20028;-72
2021/08/08 06:03:08;;;;;;;1.10;1.00;;;19.10;82.40;;;;;;5091909;28;20467;-72
2021/08/08 06:05:34;;;;;;;;;;;19.10;82.50;;;;;;5094621;28;20044;-72
2021/08/08 06:08:01;;;;;;;0.70;0.68;;;19.10;82.60;;;;;;5090170;28;19908;-71
2021/08/08 06:10:27;;;;;;;0.90;0.90;;;19.10;82.50;;;;;;5090054;28;20391;-72
2021/08/08 06:12:53;;;;;;;1.65;1.15;;;19.10;82.90;;;;;;5093375;28;20027;-72
2021/08/08 06:15:19;;;;;;;2.08;1.15;;;19.10;83.10;;;;;;5092725;28;20044;-72
2021/08/08 06:17:45;;;;;;;2.90;1.58;;;19.20;83.20;;;;;;5093717;28;20548;-71
2021/08/08 06:20:11;;;;;;;0.82;0.82;;;19.20;83.40;;;;;;5092909;28;20020;-71
2021/08/08 06:22:40;;;;;;;4.78;1.63;;;19.20;83.70;;;;;;5090852;28;20032;-71
2021/08/08 06:25:07;;;;;;;3.38;1.27;;;19.20;84.00;;;;;;5092447;28;20028;-72
2021/08/08 06:27:32;;;;;;;0.88;0.82;;;19.20;83.60;;;;;;5092142;28;20024;-71
2021/08/08 06:29:59;;;;;;;0.93;0.90;;;19.20;83.80;;;;;;5092620;28;20028;-72
2021/08/08 06:32:25;;;;;;;2.35;0.82;;;19.30;84.00;;;;;;5093166;28;20035;-71
2021/08/08 06:34:51;;;;;;;3.00;1.55;;;19.30;84.10;;;;;;5091663;28;20089;-71
2021/08/08 06:37:17;;;;;;;9.63;1.85;;;19.30;84.20;;;;;;5091771;28;20028;-71
2021/08/08 06:39:43;;;;;;;2.50;1.25;;;19.30;84.10;;;;;;5092809;28;20118;-71
2021/08/08 06:42:09;;;;;;;2.03;1.20;;;19.40;84.10;;;;;;5092599;28;20050;-71
2021/08/08 06:44:40;;;;;;;3.00;1.52;;;19.30;84.20;;;;;;5082085;28;20452;-72
2021/08/08 06:47:06;;;;;;;1.48;1.20;;;19.40;84.70;;;;;;5093184;28;20047;-72
2021/08/08 06:49:32;;;;;;;3.03;1.50;;;19.40;84.80;;;;;;5092356;28;20032;-71
2021/08/08 06:51:58;;;;;;;1.92;1.25;;;19.40;85.00;;;;;;5092505;28;20028;-71
2021/08/08 06:54:33;;;;;;;2.10;1.23;;;19.40;85.20;;;;;;5092383;28;20395;-72
2021/08/08 06:56:59;;;;;;;1.33;1.20;;;19.40;85.30;;;;;;5092502;28;20020;-72
2021/08/08 06:59:29;;;;;;;1.85;0.80;;;19.40;85.50;;;;;;5091641;28;20027;-71
2021/08/08 07:01:57;;;;;;;0.82;0.82;;;19.40;85.60;;;;;;5091956;28;20487;-71
2021/08/08 07:04:23;;;;;;;0.80;0.80;;;19.40;85.70;;;;;;5091570;28;20144;-72
2021/08/08 07:06:50;;;;;;;2.70;1.42;;;19.40;85.60;;;;;;5092693;28;20028;-72
2021/08/08 07:09:17;;;;;;;5.68;1.70;;;19.50;85.80;;;;;;5088943;28;20031;-71
2021/08/08 07:11:43;;;;;;;1.45;1.15;;;19.40;85.80;;;;;;5092476;28;20028;-72
2021/08/08 07:14:18;;;;;;;8.57;1.27;;;19.40;85.80;;;;;;5091476;28;20040;-71
2021/08/08 07:16:44;;;;;;;0.85;0.82;;;19.50;86.10;;;;;;5092686;28;20170;-71
2021/08/08 07:19:10;;;;;;;1.48;1.30;;;19.40;86.50;;;;;;5091657;28;20501;-71
2021/08/08 07:21:36;;;;;;;4.32;1.38;;;19.40;86.10;;;;;;5090784;28;20024;-72
2021/08/08 07:24:02;;;;;;;2.85;1.48;;;19.40;86.00;;;;;;5094059;28;20032;-73
2021/08/08 07:26:28;;;;;;;1.65;1.20;;;19.50;86.00;;;;;;5091209;28;20131;-73
2021/08/08 07:28:54;;;;;;;6.90;1.40;;;19.40;86.00;;;;;;5092421;28;20383;-75
2021/08/08 07:31:19;;;;;;;1.25;0.85;;;19.50;86.30;;;;;;5091594;28;20043;-75
2021/08/08 07:33:45;;;;;;;1.17;0.70;;;19.50;86.10;;;;;;5091370;28;20024;-77
2021/08/08 07:36:11;;;;;;;3.40;1.60;;;19.50;86.20;;;;;;5090376;28;20016;-76
2021/08/08 07:38:37;;;;;;;1.75;1.00;;;19.50;86.20;;;;;;5090821;28;20032;-74
2021/08/08 07:41:03;;;;;;;1.52;1.23;;;19.50;86.30;;;;;;5090229;28;20024;-73
2021/08/08 07:43:28;;;;;;;2.13;1.17;;;19.60;86.30;;;;;;5092878;28;20035;-75
2021/08/08 07:45:54;;;;;;;3.42;1.98;;;19.60;86.20;;;;;;5088620;28;20043;-71
2021/08/08 07:48:20;;;;;;;2.45;1.42;;;19.70;86.00;;;;;;5089422;28;20539;-76
2021/08/08 07:50:45;;;;;;;3.20;1.65;;;19.70;85.90;;;;;;5091273;28;20069;-70
2021/08/08 07:53:12;;;;;;;4.78;1.88;;;19.70;85.80;;;;;;5089953;28;20020;-71
2021/08/08 07:55:38;;;;;;;0.80;0.80;;;19.70;85.90;;;;;;5090686;28;20024;-70
2021/08/08 07:58:04;;;;;;;3.40;1.63;;;19.70;86.20;;;;;;5090513;28;20564;-73
2021/08/08 08:00:30;;;;;;;5.47;2.10;;;19.70;86.30;;;;;;5090618;28;20035;-71
2021/08/08 08:03:01;;;;;;;1.98;1.08;;;19.70;86.50;;;;;;5076718;28;20021;-72
2021/08/08 08:05:28;;;;;;;3.92;1.50;;;19.70;86.30;;;;;;5090606;28;20047;-72
2021/08/08 08:07:54;;;;;;;4.15;1.67;;;19.70;86.20;;;;;;5088083;28;20028;-75
2021/08/08 08:10:20;;;;;;;3.47;1.45;;;19.70;86.30;;;;;;5088617;28;20390;-74
2021/08/08 08:12:45;;;;;;;2.03;1.15;;;19.70;86.60;;;;;;5089899;28;20107;-75
2021/08/08 08:15:11;;;;;;;8.05;2.42;;;19.60;86.70;;;;;;5088044;28;20075;-74
2021/08/08 08:17:37;;;;;;;1.73;1.17;;;19.60;86.90;;;;;;5091249;28;20432;-73
2021/08/08 08:20:03;;;;;;;2.80;1.85;;;19.60;87.20;;;;;;5090867;28;20028;-74
2021/08/08 08:22:29;;;;;;;2.20;1.38;;;19.60;87.10;;;;;;5087827;28;20506;-74
2021/08/08 08:24:55;;;;;;;5.50;2.20;;;19.60;87.20;;;;;;5088157;28;20044;-71
2021/08/08 08:27:21;;;;;;;5.07;1.75;;;19.60;87.30;;;;;;5091037;28;20031;-71
2021/08/08 08:29:46;;;;;;;3.03;1.45;;;19.60;87.30;;;;;;5087689;28;20024;-71
2021/08/08 08:32:12;;;;;;;5.32;2.10;;;19.70;87.20;;;;;;5088892;28;20047;-70
2021/08/08 08:34:37;;;;;;;4.80;2.22;;;19.70;87.40;;;;;;5090548;28;20028;-70
2021/08/08 08:37:04;;;;;;;14.25;3.15;;;19.60;87.30;;;;;;5088117;28;20024;-70
2021/08/08 08:39:29;;;;;;;5.50;2.75;;;19.70;87.50;;;;;;5089021;28;20016;-74
2021/08/08 08:42:00;;;;;;;6.47;2.38;;;19.70;88.00;;;;;;5088733;28;20117;-71
2021/08/08 08:44:26;;;;;;;3.60;1.52;;;19.70;87.80;;;;;;5088488;28;20147;-73
2021/08/08 08:46:55;;;;;;;1.85;1.27;;;19.80;87.90;;;;;;5081527;28;20093;-69
2021/08/08 08:49:25;;;;;;;6.25;1.90;;;19.70;87.60;;;;;;5084046;28;20030;-72
2021/08/08 08:51:55;;;;;;;1.92;1.13;;;19.70;87.50;;;;;;5084717;28;20106;-71
2021/08/08 08:54:23;;;;;;;7.20;2.25;;;19.80;87.50;;;;;;5082341;28;20016;-72
2021/08/08 08:56:51;;;;;;;3.42;1.55;;;19.80;87.60;;;;;;5085435;28;20030;-71
2021/08/08 08:59:18;;;;;;;10.73;2.83;;;19.80;87.50;;;;;;5086048;28;20028;-70
2021/08/08 09:01:45;;;;;;;4.82;2.63;;;19.80;87.50;;;;;;5088237;28;20024;-72
2021/08/08 09:04:11;;;;;;;1.75;1.17;;;19.80;87.20;;;;;;5086823;28;20085;-70
2021/08/08 09:06:39;;;;;;;4.32;1.92;;;19.80;87.10;;;;;;5087299;28;20063;-70
2021/08/08 09:09:05;;;;;;;2.35;1.60;;;19.80;87.00;;;;;;5085240;28;20028;-70
2021/08/08 09:11:51;;;;;;;9.77;2.95;;;19.80;86.90;;;;;;5086595;28;20028;-72
2021/08/08 09:14:21;;;;;;;2.33;0.98;;;19.80;87.40;;;;;;5085478;28;20076;-70
2021/08/08 09:16:53;;;;;;;7.05;2.25;;;19.80;86.90;;;;;;5086088;28;20474;-70
2021/08/08 09:19:28;;;;;;;6.30;2.38;;;19.90;86.80;;;;;;5102378;28;20444;-70
2021/08/08 09:21:59;;;;;;;2.33;1.30;;;19.90;86.90;;;;;;5084065;28;20044;-70
2021/08/08 09:24:31;;;;;;;4.72;2.45;;;19.90;86.90;;;;;;5087419;28;20386;-70
2021/08/08 09:27:05;;;;;;;10.13;1.88;;;19.90;86.70;;;;;;5087374;28;20509;-70
2021/08/08 09:29:31;;;;;;;7.00;2.20;;;19.90;86.50;;;;;;5086166;28;20028;-69
2021/08/08 09:31:58;;;;;;;7.32;1.70;;;20.00;86.50;;;;;;5086163;28;20020;-70
2021/08/08 09:34:30;;;;;;;9.85;2.05;;;20.00;86.50;;;;;;5090414;28;20053;-69
2021/08/08 09:37:19;;;;;;;9.73;1.70;;;20.00;86.50;;;;;;5087160;28;20375;-70
2021/08/08 09:39:50;;;;;;;2.45;1.52;;;20.00;86.60;;;;;;5087397;28;20052;-70
2021/08/08 09:42:25;;;;;;;6.43;1.60;;;20.10;86.70;;;;;;5090169;28;20028;-70
2021/08/08 09:45:03;;;;;;;6.65;2.05;;;20.10;86.60;;;;;;5089879;28;20028;-70
2021/08/08 09:47:44;;;;;;;9.18;2.63;;;20.10;86.50;;;;;;5089247;28;20028;-70
2021/08/08 09:50:21;;;;;;;3.45;1.90;;;20.00;86.30;;;;;;5085147;28;20122;-71
2021/08/08 09:52:55;;;;;;;6.07;2.35;;;20.10;86.30;;;;;;5089429;28;20024;-71
2021/08/08 09:55:35;;;;;;;6.88;1.52;;;20.10;86.40;;;;;;5090540;28;20028;-69
2021/08/08 09:58:03;;;;;;;5.53;2.40;;;20.10;86.20;;;;;;5088749;28;20032;-70
2021/08/08 10:00:38;;;;;;;7.43;1.85;;;20.10;86.30;;;;;;5088658;28;20035;-71
2021/08/08 10:03:05;;;;;;;4.85;1.77;;;20.10;86.30;;;;;;5089997;28;20040;-71
2021/08/08 10:05:42;;;;;;;3.08;1.75;;;20.10;86.30;;;;;;5089605;28;20522;-71
2021/08/08 10:08:13;;;;;;;7.28;1.83;;;20.10;86.30;;;;;;5089789;28;20042;-71
2021/08/08 10:10:42;;;;;;;4.15;1.85;;;20.10;86.30;;;;;;5091269;28;20032;-71
2021/08/08 10:13:08;;;;;;;10.70;1.80;;;20.10;86.40;;;;;;5095068;28;20058;-71
2021/08/08 10:15:39;;;;;;;3.28;1.35;;;20.00;86.50;;;;;;5093430;28;20068;-71
2021/08/08 10:18:06;;;;;;;6.20;1.83;;;20.10;86.50;;;;;;5093816;28;20036;-71
2021/08/08 10:20:34;;;;;;;7.38;2.38;;;20.10;86.60;;;;;;5094444;28;20400;-71
2021/08/08 10:23:01;;;;;;;5.07;1.67;;;20.10;86.90;;;;;;5091798;28;20056;-71
2021/08/08 10:25:27;;;;;;;2.28;1.13;;;20.10;86.80;;;;;;5094529;28;20035;-71
2021/08/08 10:27:54;;;;;;;5.75;1.52;;;20.10;86.80;;;;;;5093398;28;20039;-71
2021/08/08 10:30:19;;;;;;;17.45;2.10;;;20.10;86.60;;;;;;5092575;28;20024;-71
2021/08/08 10:32:45;;;;;;;2.50;1.38;;;20.20;86.40;;;;;;5094611;28;20086;-71
2021/08/08 10:35:16;;;;;;;5.78;1.95;;;20.20;86.10;;;;;;5093953;28;20023;-73
2021/08/08 10:37:44;;;;;;;12.35;2.95;;;20.20;85.90;;;;;;5094832;28;20028;-75
2021/08/08 10:40:11;;;;;;;5.15;1.67;;;20.30;85.70;;;;;;5094290;28;20418;-73
2021/08/08 10:42:46;;;;;;;5.18;2.08;;;20.30;85.40;;;;;;5093606;28;20028;-72
2021/08/08 10:45:23;;;;;;;4.07;1.52;;;20.30;85.30;;;;;;5093963;28;20035;-73
2021/08/08 10:47:57;;;;;;;4.07;1.58;;;20.30;85.30;;;;;;5085691;28;20434;-72
2021/08/08 10:50:33;;;;;;;5.57;2.00;;;20.30;85.20;;;;;;5093273;28;20103;-72
2021/08/08 10:52:59;;;;;;;4.63;2.08;;;20.40;85.40;;;;;;5094384;28;20020;-70
2021/08/08 10:55:30;;;;;;;20.23;2.83;;;20.40;84.80;;;;;;5093867;28;20152;-73
2021/08/08 10:57:57;;;;;;;3.40;2.05;;;20.50;84.50;;;;;;5092069;28;20024;-72
2021/08/08 11:00:31;;;;;;;5.88;2.55;;;20.50;84.30;;;;;;5093598;28;20076;-70
2021/08/08 11:03:07;;;;;;;5.63;1.88;;;20.50;84.10;;;;;;5084172;28;20119;-71
2021/08/08 11:05:33;;;;;;;7.07;1.77;;;20.60;83.90;;;;;;5091683;28;20065;-74
2021/08/08 11:08:00;;;;;;;17.13;3.72;;;20.60;83.50;;;;;;5090438;28;20016;-71
2021/08/08 11:10:27;;;;;;;6.18;2.28;;;20.60;83.00;;;;;;5089024;28;20043;-74
2021/08/08 11:12:53;;;;;;;11.65;2.13;;;20.50;83.00;;;;;;5092799;28;20059;-74
2021/08/08 11:15:19;;;;;;;8.20;2.72;;;20.50;82.60;;;;;;5091475;28;20043;-72
2021/08/08 11:17:47;;;;;;;9.38;2.47;;;20.50;82.00;;;;;;5091088;28;20028;-77
2021/08/08 11:20:12;;;;;;;3.90;1.40;;;20.50;82.20;;;;;;5091761;28;20066;-72
2021/08/08 11:22:39;;;;;;;9.23;2.88;;;20.50;82.40;;;;;;5089320;28;20079;-73
2021/08/08 11:25:12;;;;;;;8.18;2.30;;;20.60;82.70;;;;;;5087611;28;20170;-72
2021/08/08 11:27:40;;;;;;;11.30;2.50;;;20.60;82.20;;;;;;5087243;28;20047;-73
2021/08/08 11:30:15;;;;;;;4.95;2.03;;;20.60;81.50;;;;;;5091586;28;20069;-72
2021/08/08 11:32:41;;;;;;;10.52;2.45;;;20.60;81.00;;;;;;5092019;28;20111;-72
2021/08/08 11:35:12;;;;;;;6.50;1.83;;;20.60;80.40;;;;;;5089941;28;20531;-72
2021/08/08 11:37:41;;;;;;;10.43;3.10;;;20.60;80.20;;;;;;5091429;28;20032;-72
2021/08/08 11:40:27;;;;;;;6.53;2.13;;;20.70;80.20;;;;;;5084009;28;20036;-72
2021/08/08 11:43:01;;;;;;;8.57;2.35;;;20.70;80.00;;;;;;5091334;28;20115;-72
2021/08/08 11:45:49;;;;;;;8.55;2.00;;;20.70;80.60;;;;;;5090389;28;20048;-72
2021/08/08 11:48:20;;;;;;;8.48;2.17;;;20.70;80.60;;;;;;5080577;28;20136;-72
2021/08/08 11:51:03;;;;;;;7.07;1.80;;;20.70;80.40;;;;;;5091318;28;20089;-72
2021/08/08 11:53:34;;;;;;;6.87;2.00;;;20.70;80.10;;;;;;5079075;28;20119;-71
2021/08/08 11:56:12;;;;;;;3.47;1.38;;;20.70;79.80;;;;;;5089986;28;20284;-72
2021/08/08 11:58:55;;;;;;;6.90;1.98;;;20.70;79.80;;;;;;5080299;28;20119;-72
2021/08/08 12:01:23;;;;;;;0.60;0.60;;;20.70;79.80;;;;;;5087511;28;20081;-73
2021/08/08 12:04:03;;;;;;;6.40;2.25;;;20.80;79.80;;;;;;5090049;28;20482;-72
2021/08/08 12:06:29;;;;;;;3.78;1.63;;;20.80;79.50;;;;;;5090404;28;20089;-73
2021/08/08 12:08:55;;;;;;;5.15;2.20;;;20.90;79.20;;;;;;5089048;28;20040;-72
2021/08/08 12:11:22;;;;;;;12.27;3.40;;;20.90;79.10;;;;;;5090470;28;20028;-72
2021/08/08 12:14:14;;;;;;;5.28;1.60;;;20.90;78.80;;;;;;5089643;28;20075;-73
2021/08/08 12:16:39;;;;;;;6.70;1.90;;;20.90;78.40;;;;;;5084919;28;20051;-73
2021/08/08 12:19:06;;;;;;;7.72;2.72;;;21.00;78.30;;;;;;5090109;28;20051;-73
2021/08/08 12:21:40;;;;;;;5.72;2.20;;;21.00;77.90;;;;;;5088895;28;20790;-73
2021/08/08 12:24:08;;;;;;;9.52;2.78;;;21.00;77.50;;;;;;5084563;28;20471;-73
2021/08/08 12:26:34;;;;;;;11.73;2.22;;;20.90;77.30;;;;;;5091123;28;20123;-72
2021/08/08 12:29:09;;;;;;;2.90;1.75;;;20.90;77.40;;;;;;5090024;28;20107;-72
2021/08/08 12:31:39;;;;;;;1.27;0.75;;;20.90;77.80;;;;;;5089588;28;20036;-72
2021/08/08 12:34:06;;;;;;;10.77;2.80;;;20.90;78.00;;;;;;5089706;28;20032;-73
2021/08/08 12:36:37;;;;;;;11.10;2.83;;;20.90;76.70;;;;;;5089922;28;20364;-72
2021/08/08 12:39:03;;;;;;;5.07;2.03;;;20.90;76.60;;;;;;5087595;28;20078;-72
2021/08/08 12:41:31;;;;;;;4.10;1.70;;;21.00;76.80;;;;;;5090279;28;20499;-72
2021/08/08 12:44:00;;;;;;;5.00;1.85;;;21.00;76.50;;;;;;5086834;28;20475;-72
2021/08/08 12:46:35;;;;;;;8.48;2.00;;;21.00;76.20;;;;;;5090416;28;20386;-72
2021/08/08 12:49:03;;;;;;;4.05;1.80;;;21.00;76.00;;;;;;5088585;28;20028;-72
2021/08/08 12:51:29;;;;;;;13.85;2.55;;;21.10;75.70;;;;;;5089928;28;20474;-72